Time;durP1;ratioP1;P1;durP2;ratioP2;P2;SDS_P1;SDS_P2;PMS_P1;PMS_P2;Temp;Humidity;BMP_temperature;BMP_pressure;BME280_temperature;BME280_humidity;BME280_pressure;Samples;Min_cycle;Max_cycle;Signal;HPM_P1;HPM_P2
2022/12/18 00:01:26;;;;;;;15.32;7.40;;;-5.70;99.90;;;;;;4999824;28;20202;-81
2022/12/18 00:03:53;;;;;;;11.90;7.78;;;-5.80;99.90;;;;;;4999134;28;20210;-83
2022/12/18 00:06:21;;;;;;;12.75;6.50;;;-5.70;99.90;;;;;;5000936;28;20207;-83
2022/12/18 00:08:52;;;;;;;16.20;6.82;;;-5.80;99.90;;;;;;5000631;28;20203;-84
2022/12/18 00:11:21;;;;;;;13.07;7.45;;;-5.80;99.90;;;;;;5001721;28;20216;-83
2022/12/18 00:13:48;;;;;;;11.68;6.63;;;-5.70;99.90;;;;;;5010964;28;20210;-81
2022/12/18 00:16:19;;;;;;;11.80;7.32;;;-5.70;99.90;;;;;;5013231;28;20293;-82
2022/12/18 00:18:47;;;;;;;10.50;6.28;;;-5.80;99.90;;;;;;4996854;28;20286;-83
2022/12/18 00:21:15;;;;;;;11.20;7.70;;;-5.80;99.90;;;;;;4996856;28;20207;-83
2022/12/18 00:23:45;;;;;;;13.13;7.55;;;-5.80;99.90;;;;;;4997311;28;20203;-83
2022/12/18 00:26:18;;;;;;;13.60;6.43;;;-5.90;99.90;;;;;;5000444;28;20199;-83
2022/12/18 00:28:46;;;;;;;14.18;7.03;;;-5.90;99.90;;;;;;5007628;23;20266;-82
2022/12/18 00:31:14;;;;;;;15.77;7.30;;;-5.80;99.90;;;;;;4979344;28;20232;-82
2022/12/18 00:33:41;;;;;;;13.02;7.32;;;-5.90;99.90;;;;;;4996562;28;20267;-82
2022/12/18 00:36:10;;;;;;;12.13;6.65;;;-5.90;99.90;;;;;;4985218;28;20208;-82
2022/12/18 00:38:37;;;;;;;15.40;8.10;;;-5.90;99.90;;;;;;4977456;28;20223;-82
2022/12/18 00:41:05;;;;;;;13.40;8.85;;;-5.90;99.90;;;;;;4999247;28;20203;-82
2022/12/18 00:43:35;;;;;;;18.55;8.85;;;-5.90;99.90;;;;;;4996837;28;20208;-82
2022/12/18 00:46:02;;;;;;;15.80;8.25;;;-6.00;99.90;;;;;;4979773;28;20204;-82
2022/12/18 00:48:28;;;;;;;10.40;7.50;;;-6.00;99.90;;;;;;4976817;28;20716;-79
2022/12/18 00:50:55;;;;;;;17.90;8.60;;;-6.00;99.90;;;;;;4978563;28;20253;-81
2022/12/18 00:53:22;;;;;;;13.13;6.80;;;-6.00;99.90;;;;;;4982554;28;20222;-82
2022/12/18 00:55:49;;;;;;;12.00;7.47;;;-6.00;99.90;;;;;;4978109;28;20215;-82
2022/12/18 00:58:17;;;;;;;11.27;6.97;;;-6.00;99.90;;;;;;4978646;28;20709;-81
2022/12/18 01:00:45;;;;;;;14.20;7.55;;;-6.10;99.90;;;;;;4988528;28;20271;-81
2022/12/18 01:03:14;;;;;;;13.73;8.23;;;-6.20;99.90;;;;;;4991409;28;20287;-81
2022/12/18 01:05:42;;;;;;;13.50;7.28;;;-6.20;99.90;;;;;;4989961;28;20216;-80
2022/12/18 01:08:09;;;;;;;13.73;7.18;;;-6.20;99.90;;;;;;4988260;28;20220;-82
2022/12/18 01:10:36;;;;;;;12.48;7.55;;;-6.30;99.90;;;;;;4998375;28;20230;-81
2022/12/18 01:13:03;;;;;;;14.32;7.10;;;-6.40;99.90;;;;;;4988039;28;20204;-81
2022/12/18 01:15:29;;;;;;;14.77;7.78;;;-6.30;99.90;;;;;;4983991;28;20213;-81
2022/12/18 01:17:58;;;;;;;16.05;7.30;;;-6.20;99.90;;;;;;4977795;28;20728;-81
2022/12/18 01:20:24;;;;;;;10.13;6.07;;;-6.20;99.90;;;;;;4976805;28;20205;-82
2022/12/18 01:22:51;;;;;;;12.75;6.85;;;-6.20;99.90;;;;;;4978035;28;20211;-81
2022/12/18 01:25:18;;;;;;;14.35;7.13;;;-6.20;99.90;;;;;;4982086;28;20701;-81
2022/12/18 01:27:45;;;;;;;14.18;7.25;;;-6.20;99.90;;;;;;4998039;28;20322;-82
2022/12/18 01:30:12;;;;;;;14.50;7.47;;;-6.20;99.90;;;;;;4986126;28;20220;-81
2022/12/18 01:32:39;;;;;;;12.15;7.07;;;-6.20;99.90;;;;;;4978033;28;20291;-82
2022/12/18 01:35:08;;;;;;;10.13;6.80;;;-6.20;99.90;;;;;;4979181;28;20212;-81
2022/12/18 01:37:35;;;;;;;15.63;7.97;;;-6.20;99.90;;;;;;4997885;28;20712;-82
2022/12/18 01:40:02;;;;;;;10.55;6.40;;;-6.20;99.90;;;;;;4997223;28;20294;-82
2022/12/18 01:42:29;;;;;;;16.02;8.35;;;-6.20;99.90;;;;;;4983676;28;20208;-81
2022/12/18 01:45:02;;;;;;;14.52;7.13;;;-6.20;99.90;;;;;;4977899;28;20204;-81
2022/12/18 01:47:34;;;;;;;8.20;6.43;;;-6.10;99.90;;;;;;4997500;28;20227;-81
2022/12/18 01:50:03;;;;;;;11.57;6.53;;;-6.20;99.90;;;;;;4998669;28;20225;-82
2022/12/18 01:52:33;;;;;;;10.02;5.72;;;-6.20;99.90;;;;;;4997240;28;20829;-81
2022/12/18 01:55:01;;;;;;;11.50;6.50;;;-6.20;99.90;;;;;;4982402;28;20227;-82
2022/12/18 01:57:29;;;;;;;9.65;6.32;;;-6.20;99.90;;;;;;4994653;28;20231;-81
2022/12/18 02:00:01;;;;;;;14.40;6.90;;;-6.20;99.90;;;;;;4981293;28;20215;-82
2022/12/18 02:02:29;;;;;;;18.67;6.65;;;-6.20;99.90;;;;;;4986791;28;20270;-81
2022/12/18 02:04:56;;;;;;;13.38;7.25;;;-6.20;99.90;;;;;;4981666;28;20583;-82
2022/12/18 02:07:30;;;;;;;15.20;7.30;;;-6.20;99.90;;;;;;4994301;28;20411;-83
2022/12/18 02:10:02;;;;;;;10.65;6.85;;;-6.20;99.90;;;;;;5000008;28;20210;-82
2022/12/18 02:12:35;;;;;;;12.57;5.57;;;-6.20;99.90;;;;;;4994563;28;20227;-81
2022/12/18 02:15:08;;;;;;;11.95;6.40;;;-6.20;99.90;;;;;;4981974;28;20192;-82
2022/12/18 02:17:40;;;;;;;11.75;5.72;;;-6.10;99.90;;;;;;4991077;28;20719;-82
2022/12/18 02:20:16;;;;;;;12.05;5.72;;;-6.10;99.90;;;;;;4980002;28;20204;-82
2022/12/18 02:22:53;;;;;;;12.73;6.30;;;-6.10;99.90;;;;;;4998677;28;20210;-82
2022/12/18 02:25:35;;;;;;;8.88;5.80;;;-6.10;99.90;;;;;;5000867;28;20211;-82
2022/12/18 02:28:07;;;;;;;7.50;5.32;;;-6.00;99.90;;;;;;4980775;28;20238;-83
2022/12/18 02:30:36;;;;;;;11.45;5.15;;;-6.00;99.90;;;;;;4980955;28;20231;-81
2022/12/18 02:33:07;;;;;;;10.93;5.38;;;-6.00;99.90;;;;;;4983824;28;20208;-83
2022/12/18 02:35:35;;;;;;;9.77;5.90;;;-6.10;99.90;;;;;;4981655;28;20199;-82
2022/12/18 02:38:04;;;;;;;9.30;5.95;;;-6.10;99.90;;;;;;4998141;28;20226;-82
2022/12/18 02:40:31;;;;;;;9.35;5.60;;;-6.10;99.90;;;;;;4992582;28;20683;-80
2022/12/18 02:43:08;;;;;;;7.63;4.70;;;-6.00;99.90;;;;;;4982450;28;20207;-83
2022/12/18 02:45:35;;;;;;;9.85;5.70;;;-6.00;99.90;;;;;;4989277;28;20203;-83
2022/12/18 02:48:02;;;;;;;11.85;6.32;;;-5.90;99.90;;;;;;5000062;28;20608;-83
2022/12/18 02:50:35;;;;;;;11.85;5.40;;;-5.90;99.90;;;;;;4999717;28;20602;-81
2022/12/18 02:53:16;;;;;;;11.07;5.75;;;-6.00;99.90;;;;;;4999862;28;20207;-82
2022/12/18 02:55:53;;;;;;;10.48;5.40;;;-6.00;99.90;;;;;;4988179;28;20206;-82
2022/12/18 02:58:31;;;;;;;12.25;6.20;;;-6.00;99.90;;;;;;5000359;28;20231;-83
2022/12/18 03:01:05;;;;;;;9.77;5.30;;;-6.00;99.90;;;;;;5001319;28;20200;-82
2022/12/18 03:03:38;;;;;;;10.20;5.10;;;-6.00;99.90;;;;;;5001141;28;20221;-83
2022/12/18 03:06:10;;;;;;;8.48;5.20;;;-6.00;99.90;;;;;;4992548;28;20200;-83
2022/12/18 03:08:40;;;;;;;12.52;5.80;;;-6.00;99.90;;;;;;4980374;28;20231;-83
2022/12/18 03:11:09;;;;;;;10.00;5.10;;;-6.00;99.90;;;;;;4992173;28;20224;-83
2022/12/18 03:13:41;;;;;;;10.18;5.68;;;-5.90;99.90;;;;;;4995251;28;20200;-83
2022/12/18 03:16:12;;;;;;;14.40;6.30;;;-5.90;99.90;;;;;;4988018;28;20205;-84
2022/12/18 03:18:44;;;;;;;12.57;5.82;;;-5.80;99.90;;;;;;4999897;28;20227;-82
2022/12/18 03:21:13;;;;;;;11.85;5.50;;;-5.80;99.90;;;;;;5000015;28;20206;-83
2022/12/18 03:23:43;;;;;;;13.20;6.50;;;-5.80;99.90;;;;;;4981051;28;20205;-83
2022/12/18 03:26:13;;;;;;;11.90;6.20;;;-5.80;99.90;;;;;;4991441;28;20204;-83
2022/12/18 03:28:48;;;;;;;11.05;5.00;;;-5.80;99.90;;;;;;4999856;28;20242;-82
2022/12/18 03:31:16;;;;;;;8.30;5.10;;;-5.80;99.90;;;;;;4992291;28;20224;-82
2022/12/18 03:33:47;;;;;;;10.73;4.80;;;-5.80;99.90;;;;;;4980722;28;20215;-83
2022/12/18 03:36:14;;;;;;;12.57;5.25;;;-5.70;99.90;;;;;;4981923;28;20198;-83
2022/12/18 03:38:41;;;;;;;5.68;4.28;;;-5.70;99.90;;;;;;4979751;28;20231;-82
2022/12/18 03:41:16;;;;;;;7.22;5.15;;;-5.80;99.90;;;;;;4988838;28;20302;-82
2022/12/18 03:43:51;;;;;;;10.48;5.57;;;-5.80;99.90;;;;;;4987068;28;20203;-83
2022/12/18 03:46:25;;;;;;;10.25;5.13;;;-5.70;99.90;;;;;;4989830;28;20195;-83
2022/12/18 03:48:58;;;;;;;10.45;4.90;;;-5.70;99.90;;;;;;4998942;28;20318;-82
2022/12/18 03:51:29;;;;;;;11.80;6.40;;;-5.70;99.90;;;;;;4980987;28;20220;-82
2022/12/18 03:53:59;;;;;;;9.93;5.70;;;-5.70;99.90;;;;;;4980634;28;20680;-82
2022/12/18 03:56:30;;;;;;;10.98;5.43;;;-5.70;99.90;;;;;;4998127;28;20214;-83
2022/12/18 03:59:00;;;;;;;7.90;4.35;;;-5.70;99.90;;;;;;4999077;28;20237;-83
2022/12/18 04:01:33;;;;;;;8.65;4.65;;;-5.70;99.90;;;;;;4998962;28;20198;-83
2022/12/18 04:04:02;;;;;;;8.98;5.50;;;-5.70;99.90;;;;;;4991756;28;20207;-83
2022/12/18 04:06:29;;;;;;;6.05;4.25;;;-5.70;99.90;;;;;;4992190;28;20695;-82
2022/12/18 04:08:58;;;;;;;10.90;5.80;;;-5.70;99.90;;;;;;4979186;28;20228;-82
2022/12/18 04:11:25;;;;;;;10.23;5.18;;;-5.70;99.90;;;;;;4995885;28;20224;-83
2022/12/18 04:13:55;;;;;;;11.80;5.38;;;-5.70;99.90;;;;;;4999774;28;20676;-82
2022/12/18 04:16:24;;;;;;;12.55;5.80;;;-5.70;99.90;;;;;;5004452;28;20218;-83
2022/12/18 04:18:50;;;;;;;7.28;5.15;;;-5.70;99.90;;;;;;4989204;28;20311;-83
2022/12/18 04:21:17;;;;;;;10.23;4.85;;;-5.70;99.90;;;;;;4987384;28;20272;-83
2022/12/18 04:23:44;;;;;;;10.73;6.10;;;-5.70;99.90;;;;;;4984658;28;20737;-83
2022/12/18 04:26:11;;;;;;;9.27;6.45;;;-5.70;99.90;;;;;;4998450;28;20219;-83
2022/12/18 04:28:38;;;;;;;11.43;5.10;;;-5.70;99.90;;;;;;4999132;28;20224;-83
2022/12/18 04:31:05;;;;;;;11.35;6.50;;;-5.80;99.90;;;;;;4996507;28;20909;-81
2022/12/18 04:33:33;;;;;;;13.02;5.43;;;-5.80;99.90;;;;;;4985678;28;20234;-83
2022/12/18 04:36:00;;;;;;;11.93;6.72;;;-5.80;99.90;;;;;;4997892;28;20210;-83
2022/12/18 04:38:26;;;;;;;9.48;4.63;;;-5.70;99.90;;;;;;5002486;28;20232;-83
2022/12/18 04:40:53;;;;;;;9.80;5.20;;;-5.80;99.90;;;;;;4990889;28;20268;-81
2022/12/18 04:43:20;;;;;;;8.80;5.15;;;-5.80;99.90;;;;;;4999230;28;20208;-81
2022/12/18 04:45:47;;;;;;;9.65;5.07;;;-5.90;99.90;;;;;;4986788;28;20275;-83
2022/12/18 04:48:13;;;;;;;10.95;5.85;;;-5.80;99.90;;;;;;4984355;28;20631;-83
2022/12/18 04:50:42;;;;;;;10.38;5.82;;;-5.80;99.90;;;;;;4992513;28;20207;-81
2022/12/18 04:53:08;;;;;;;13.93;5.28;;;-5.90;99.90;;;;;;4989548;28;20215;-83
2022/12/18 04:55:35;;;;;;;8.80;5.07;;;-5.90;99.90;;;;;;4992527;28;20275;-83
2022/12/18 04:58:02;;;;;;;11.90;5.57;;;-5.90;99.90;;;;;;5004616;28;20294;-83
2022/12/18 05:00:29;;;;;;;6.90;5.28;;;-5.90;99.90;;;;;;4989829;28;20226;-81
2022/12/18 05:02:55;;;;;;;7.07;5.13;;;-5.90;99.90;;;;;;4991548;28;20216;-82
2022/12/18 05:05:22;;;;;;;8.18;5.20;;;-5.90;99.90;;;;;;4994940;28;20314;-81
2022/12/18 05:07:50;;;;;;;10.20;5.50;;;-5.90;99.90;;;;;;5009970;28;20310;-78
2022/12/18 05:10:17;;;;;;;10.20;5.43;;;-5.90;99.90;;;;;;4990183;28;20295;-81
2022/12/18 05:15:38;;;;;;;11.18;4.88;;;-5.90;99.90;;;;;;5141458;27;20581;-81
2022/12/18 05:18:05;;;;;;;8.07;4.50;;;-5.90;99.90;;;;;;5139936;27;20216;-81
2022/12/18 05:20:32;;;;;;;8.85;4.47;;;-5.90;99.90;;;;;;5118171;28;20287;-80
2022/12/18 05:22:59;;;;;;;9.32;4.95;;;-5.90;99.90;;;;;;5136341;27;20222;-81
2022/12/18 05:25:25;;;;;;;7.47;4.75;;;-5.90;99.90;;;;;;5135437;27;20202;-81
2022/12/18 05:27:52;;;;;;;8.80;4.70;;;-5.90;99.90;;;;;;5115744;28;20230;-80
2022/12/18 05:30:19;;;;;;;8.05;5.47;;;-6.00;99.90;;;;;;5116274;28;20201;-81
2022/12/18 05:32:47;;;;;;;7.75;4.88;;;-5.90;99.90;;;;;;5136261;28;20689;-81
2022/12/18 05:35:14;;;;;;;8.90;4.80;;;-6.00;99.90;;;;;;5121860;27;20219;-81
2022/12/18 05:37:41;;;;;;;9.45;5.43;;;-6.00;99.90;;;;;;5124737;28;20219;-79
2022/12/18 05:40:09;;;;;;;9.90;5.18;;;-6.00;99.90;;;;;;5114501;28;20203;-82
2022/12/18 05:42:35;;;;;;;8.05;3.72;;;-6.00;99.90;;;;;;5133542;28;20199;-84
2022/12/18 05:45:03;;;;;;;8.57;5.47;;;-6.00;99.90;;;;;;5136400;27;20294;-83
2022/12/18 05:47:30;;;;;;;11.00;5.38;;;-6.00;99.90;;;;;;5119433;27;20228;-84
2022/12/18 05:49:58;;;;;;;8.50;5.15;;;-6.10;99.90;;;;;;5124257;28;20684;-80
2022/12/18 05:52:25;;;;;;;8.98;5.13;;;-6.10;99.90;;;;;;5118721;27;20200;-80
2022/12/18 05:54:52;;;;;;;7.93;4.72;;;-6.20;99.90;;;;;;5124222;28;20344;-79
2022/12/18 05:57:18;;;;;;;7.03;4.97;;;-6.20;99.90;;;;;;5135495;27;20275;-78
2022/12/18 05:59:45;;;;;;;9.07;5.30;;;-6.20;99.90;;;;;;5113527;28;20295;-78
2022/12/18 06:02:12;;;;;;;12.05;6.53;;;-6.20;99.90;;;;;;5115943;28;20278;-79
2022/12/18 06:04:39;;;;;;;8.88;5.18;;;-6.20;99.90;;;;;;5115947;28;20206;-78
2022/12/18 06:07:07;;;;;;;9.85;5.28;;;-6.30;99.90;;;;;;5116138;28;20239;-78
2022/12/18 06:09:34;;;;;;;9.25;6.22;;;-6.30;99.90;;;;;;5114311;28;20200;-79
2022/12/18 06:12:01;;;;;;;10.05;5.95;;;-6.30;99.90;;;;;;5114981;28;20280;-79
2022/12/18 06:14:28;;;;;;;9.23;4.88;;;-6.30;99.90;;;;;;5115421;28;20223;-78
2022/12/18 06:16:55;;;;;;;9.15;4.65;;;-6.30;99.90;;;;;;5115361;28;20199;-78
2022/12/18 06:19:21;;;;;;;8.48;4.75;;;-6.30;99.90;;;;;;5114343;28;20229;-79
2022/12/18 06:21:49;;;;;;;8.25;5.20;;;-6.30;99.90;;;;;;5116649;28;20290;-78
2022/12/18 06:24:17;;;;;;;10.63;6.25;;;-6.30;99.90;;;;;;5114914;28;20195;-78
2022/12/18 06:26:44;;;;;;;10.43;5.82;;;-6.30;99.90;;;;;;5103797;28;20207;-79
2022/12/18 06:31:50;;;;;;;9.65;5.80;;;-6.30;99.90;;;;;;5067062;23;20709;-82
2022/12/18 06:34:17;;;;;;;9.32;5.70;;;-6.30;99.90;;;;;;5079358;28;20255;-84
2022/12/18 06:36:43;;;;;;;11.63;6.05;;;-6.40;99.90;;;;;;5081216;28;20232;-83
2022/12/18 06:39:10;;;;;;;11.05;6.28;;;-6.50;99.90;;;;;;5087029;28;20202;-82
2022/12/18 06:41:38;;;;;;;9.98;5.80;;;-6.50;99.90;;;;;;5081120;28;20756;-83
2022/12/18 06:44:05;;;;;;;12.50;6.95;;;-6.50;99.90;;;;;;5080877;28;20287;-84
2022/12/18 06:46:33;;;;;;;13.35;6.90;;;-6.40;99.90;;;;;;5082891;28;20284;-82
2022/12/18 06:48:59;;;;;;;15.77;6.45;;;-6.40;99.90;;;;;;5082235;28;20205;-84
2022/12/18 06:51:26;;;;;;;21.08;7.65;;;-6.40;99.90;;;;;;5081008;28;20243;-83
2022/12/18 06:53:53;;;;;;;12.50;7.18;;;-6.50;99.90;;;;;;5082071;28;20204;-82
2022/12/18 06:56:20;;;;;;;14.23;6.95;;;-6.60;99.90;;;;;;5079945;28;20217;-83
2022/12/18 06:58:51;;;;;;;9.50;6.07;;;-6.50;99.90;;;;;;5084794;28;20248;-81
2022/12/18 07:01:17;;;;;;;14.88;8.35;;;-6.50;99.90;;;;;;5072793;28;20765;-83
2022/12/18 07:03:44;;;;;;;11.43;7.00;;;-6.50;99.90;;;;;;5070879;28;20212;-83
2022/12/18 07:06:15;;;;;;;13.93;7.10;;;-6.50;99.90;;;;;;5072407;28;20201;-82
2022/12/18 07:08:42;;;;;;;18.27;7.75;;;-6.50;99.90;;;;;;5068398;28;20197;-82
2022/12/18 07:11:09;;;;;;;12.80;6.32;;;-6.50;99.90;;;;;;5076678;28;20221;-81
2022/12/18 07:13:36;;;;;;;16.08;9.35;;;-6.50;99.90;;;;;;5078279;28;20211;-82
2022/12/18 07:16:10;;;;;;;8.85;6.05;;;-6.50;99.90;;;;;;5078017;28;20224;-80
2022/12/18 07:18:37;;;;;;;12.15;6.40;;;-6.60;99.90;;;;;;5077549;28;20272;-82
2022/12/18 07:21:05;;;;;;;12.80;6.22;;;-6.60;99.90;;;;;;5076224;28;20247;-82
2022/12/18 07:23:33;;;;;;;10.85;6.85;;;-6.60;99.90;;;;;;5066809;28;20198;-82
2022/12/18 07:26:03;;;;;;;17.88;8.00;;;-6.50;99.90;;;;;;5058426;28;20201;-83
2022/12/18 07:28:30;;;;;;;9.85;5.63;;;-6.50;99.90;;;;;;5076492;28;20212;-83
2022/12/18 07:30:57;;;;;;;11.73;6.85;;;-6.50;99.90;;;;;;5076556;28;20232;-82
2022/12/18 07:33:25;;;;;;;8.85;6.18;;;-6.60;99.90;;;;;;5077111;28;20235;-84
2022/12/18 07:35:52;;;;;;;11.30;6.18;;;-6.50;99.90;;;;;;5077572;28;20818;-82
2022/12/18 07:38:19;;;;;;;11.80;6.57;;;-6.50;99.90;;;;;;5076198;28;20308;-82
2022/12/18 07:40:45;;;;;;;13.13;7.35;;;-6.50;99.90;;;;;;5077894;28;20227;-83
2022/12/18 07:43:12;;;;;;;9.02;6.10;;;-6.50;99.90;;;;;;5077493;28;20196;-81
2022/12/18 07:45:39;;;;;;;15.90;7.90;;;-6.60;99.90;;;;;;5076114;28;20669;-83
2022/12/18 07:48:06;;;;;;;11.20;6.63;;;-6.60;99.90;;;;;;5077443;28;20295;-82
2022/12/18 07:50:34;;;;;;;10.68;5.68;;;-6.60;99.90;;;;;;5075604;28;20316;-81
2022/12/18 07:53:03;;;;;;;12.60;7.00;;;-6.50;99.90;;;;;;5064697;28;20201;-82
2022/12/18 07:55:30;;;;;;;14.20;7.05;;;-6.40;99.90;;;;;;5073854;28;20221;-84
2022/12/18 07:57:56;;;;;;;12.85;6.32;;;-6.40;99.90;;;;;;5071925;28;20280;-84
2022/12/18 08:00:23;;;;;;;9.00;6.05;;;-6.40;99.90;;;;;;5071093;28;20245;-82
2022/12/18 08:02:50;;;;;;;10.20;6.00;;;-6.40;99.90;;;;;;5070933;28;20197;-84
2022/12/18 08:05:17;;;;;;;11.20;8.27;;;-6.30;99.90;;;;;;5069818;28;20290;-83
2022/12/18 08:07:46;;;;;;;14.15;8.20;;;-6.20;99.90;;;;;;5068542;28;20292;-84
2022/12/18 08:10:13;;;;;;;15.65;7.78;;;-6.10;99.90;;;;;;5070638;28;20598;-84
2022/12/18 08:12:40;;;;;;;14.25;8.60;;;-6.10;99.90;;;;;;5068137;28;20206;-81
2022/12/18 08:15:08;;;;;;;11.48;7.80;;;-6.00;99.90;;;;;;5065577;28;20216;-84
2022/12/18 08:17:35;;;;;;;17.80;9.98;;;-5.90;99.90;;;;;;5074107;28;20693;-84
2022/12/18 08:20:02;;;;;;;15.07;9.38;;;-5.80;99.90;;;;;;5078759;28;20220;-84
2022/12/18 08:22:28;;;;;;;17.23;9.73;;;-5.70;99.90;;;;;;5078775;28;20201;-84
2022/12/18 08:24:57;;;;;;;18.35;10.10;;;-5.70;99.90;;;;;;5081094;28;20658;-84
2022/12/18 08:27:23;;;;;;;16.38;9.38;;;-5.80;99.90;;;;;;5073653;28;20203;-84
2022/12/18 08:29:50;;;;;;;18.63;9.02;;;-5.80;99.90;;;;;;5070020;28;20235;-85
2022/12/18 08:32:17;;;;;;;12.95;8.65;;;-5.70;99.90;;;;;;5079406;28;20207;-82
2022/12/18 08:34:44;;;;;;;15.93;8.90;;;-5.60;99.90;;;;;;5071735;28;20318;-82
2022/12/18 08:37:10;;;;;;;17.92;9.48;;;-5.50;99.90;;;;;;5079559;28;20196;-82
2022/12/18 08:39:37;;;;;;;16.85;9.98;;;-5.50;99.90;;;;;;5081873;28;20663;-83
2022/12/18 08:44:51;;;;;;;18.15;11.18;;;-5.30;99.90;;;;;;5080339;28;20230;-82
2022/12/18 08:47:18;;;;;;;18.20;10.02;;;-5.20;99.90;;;;;;5079394;28;20279;-82
2022/12/18 08:49:45;;;;;;;19.02;10.27;;;-5.10;99.90;;;;;;5077172;28;20669;-82
2022/12/18 08:52:12;;;;;;;16.33;9.38;;;-5.00;99.90;;;;;;5078347;28;20283;-83
2022/12/18 08:54:38;;;;;;;12.85;9.00;;;-4.90;99.90;;;;;;5079226;28;20227;-83
2022/12/18 08:57:06;;;;;;;19.30;8.45;;;-4.80;99.90;;;;;;5078562;28;20595;-83
2022/12/18 08:59:33;;;;;;;15.70;9.43;;;-4.70;99.90;;;;;;5080495;28;20208;-83
2022/12/18 09:02:00;;;;;;;13.35;8.70;;;-4.60;99.90;;;;;;5079547;28;20287;-83
2022/12/18 09:04:27;;;;;;;16.23;8.48;;;-4.40;99.90;;;;;;5080359;28;20201;-82
2022/12/18 09:06:57;;;;;;;13.88;8.63;;;-4.40;99.90;;;;;;5076794;28;20279;-83
2022/12/18 09:09:24;;;;;;;14.60;9.35;;;-4.30;99.90;;;;;;5075872;28;20264;-83
2022/12/18 09:11:51;;;;;;;12.95;8.45;;;-4.30;99.90;;;;;;5081343;28;20213;-82
2022/12/18 09:14:19;;;;;;;17.58;11.38;;;-4.20;99.90;;;;;;5080619;28;20215;-83
2022/12/18 09:16:46;;;;;;;14.85;8.68;;;-4.00;99.90;;;;;;5082194;28;20235;-81
2022/12/18 09:19:13;;;;;;;17.77;10.63;;;-3.80;99.90;;;;;;5074966;28;20279;-81
2022/12/18 09:21:41;;;;;;;17.90;10.90;;;-3.60;99.90;;;;;;5067683;28;20275;-79
2022/12/18 09:24:14;;;;;;;18.45;12.20;;;-3.50;99.90;;;;;;5073259;28;20200;-84
2022/12/18 09:26:43;;;;;;;21.30;12.95;;;-3.40;99.90;;;;;;5079931;28;20216;-81
2022/12/18 09:29:10;;;;;;;19.27;12.20;;;-3.30;99.90;;;;;;5077988;28;20268;-83
2022/12/18 09:31:39;;;;;;;22.73;12.82;;;-3.10;99.90;;;;;;5064116;28;20320;-83
2022/12/18 09:34:06;;;;;;;18.70;12.55;;;-3.10;99.90;;;;;;5057904;28;20236;-83
2022/12/18 09:36:33;;;;;;;21.20;13.93;;;-3.00;99.90;;;;;;5059793;28;20759;-83
2022/12/18 09:39:00;;;;;;;21.00;13.55;;;-3.00;99.90;;;;;;5077029;28;20200;-81
2022/12/18 09:41:40;;;;;;;21.35;14.55;;;-2.90;99.90;;;;;;5067251;28;20696;-80
2022/12/18 09:44:14;;;;;;;18.50;12.95;;;-2.80;99.90;;;;;;5077040;28;20665;-81
2022/12/18 09:46:50;;;;;;;22.00;13.70;;;-2.60;99.90;;;;;;5078818;28;20744;-80
2022/12/18 09:49:20;;;;;;;24.95;12.85;;;-2.50;99.90;;;;;;5074622;28;20201;-81
2022/12/18 09:51:54;;;;;;;22.50;12.60;;;-2.40;99.90;;;;;;5063563;28;20237;-83
2022/12/18 09:54:25;;;;;;;23.88;13.23;;;-2.30;99.90;;;;;;5075824;28;20227;-84
2022/12/18 09:56:52;;;;;;;20.15;13.90;;;-2.10;99.90;;;;;;5065177;28;20729;-83
2022/12/18 09:59:25;;;;;;;12.60;8.65;;;-2.10;99.90;;;;;;5070655;28;20235;-81
2022/12/18 10:01:54;;;;;;;18.80;8.93;;;-1.80;99.90;;;;;;5080623;28;20673;-83
2022/12/18 10:04:20;;;;;;;14.07;8.95;;;-1.60;99.90;;;;;;5082319;28;20308;-81
2022/12/18 10:06:53;;;;;;;11.88;7.55;;;-1.40;99.90;;;;;;5083409;28;20269;-84
2022/12/18 10:09:29;;;;;;;13.85;8.73;;;-1.20;99.90;;;;;;5082467;28;20711;-80
2022/12/18 10:12:05;;;;;;;11.98;7.25;;;-1.10;99.90;;;;;;5081166;28;20283;-84
2022/12/18 10:14:38;;;;;;;15.02;7.93;;;-0.90;99.90;;;;;;5082233;28;20287;-84
2022/12/18 10:17:18;;;;;;;9.90;6.07;;;-0.90;99.90;;;;;;5083272;28;20669;-84
2022/12/18 10:19:51;;;;;;;7.25;4.53;;;-0.60;99.90;;;;;;5082809;28;20768;-83
2022/12/18 10:22:27;;;;;;;8.68;5.32;;;-0.40;99.90;;;;;;5080189;28;20261;-84
2022/12/18 10:25:00;;;;;;;10.85;5.55;;;-0.30;99.90;;;;;;5085615;28;20200;-81
2022/12/18 10:27:29;;;;;;;7.38;4.85;;;0.00;99.90;;;;;;5082190;28;20213;-82
2022/12/18 10:29:56;;;;;;;9.20;3.70;;;0.20;99.90;;;;;;5081352;28;20302;-84
2022/12/18 10:32:27;;;;;;;7.70;3.92;;;0.40;99.90;;;;;;5082263;28;20191;-84
2022/12/18 10:34:56;;;;;;;5.40;3.50;;;0.50;99.90;;;;;;5080624;28;20255;-84
2022/12/18 10:37:26;;;;;;;4.72;2.95;;;0.60;99.90;;;;;;5080706;28;20562;-85
2022/12/18 10:40:12;;;;;;;7.05;4.20;;;0.80;99.90;;;;;;5084397;28;20421;-83
2022/12/18 10:42:39;;;;;;;5.85;3.17;;;1.10;99.90;;;;;;5069809;28;20224;-82
2022/12/18 10:45:11;;;;;;;7.22;2.67;;;1.20;99.90;;;;;;5082459;28;20234;-83
2022/12/18 10:47:44;;;;;;;4.50;2.80;;;1.50;99.90;;;;;;5084041;28;20204;-84
2022/12/18 10:50:24;;;;;;;4.47;2.53;;;1.60;99.90;;;;;;5081289;28;20233;-84
2022/12/18 10:52:57;;;;;;;6.10;3.63;;;1.80;99.90;;;;;;5083370;28;20686;-82
2022/12/18 10:55:24;;;;;;;10.90;5.22;;;1.80;99.90;;;;;;5089298;28;20660;-84
2022/12/18 10:57:55;;;;;;;11.60;7.00;;;2.00;99.90;;;;;;5092179;28;20278;-81
2022/12/18 11:00:28;;;;;;;21.83;11.77;;;2.10;99.90;;;;;;5092690;28;20229;-83
2022/12/18 11:02:58;;;;;;;22.73;11.07;;;2.30;99.90;;;;;;5092004;28;20201;-82
2022/12/18 11:05:28;;;;;;;29.95;14.23;;;2.40;99.90;;;;;;5094193;28;20204;-82
2022/12/18 11:07:56;;;;;;;23.03;13.70;;;2.40;99.90;;;;;;5091014;28;20199;-83
2022/12/18 11:10:27;;;;;;;21.70;13.13;;;2.40;99.90;;;;;;5082596;28;20476;-83
2022/12/18 11:12:53;;;;;;;18.48;13.13;;;2.40;99.90;;;;;;5083400;28;20446;-83
2022/12/18 11:15:22;;;;;;;20.23;12.30;;;2.50;99.90;;;;;;5082685;28;20333;-84
2022/12/18 11:17:51;;;;;;;19.17;12.80;;;2.60;99.90;;;;;;5085625;28;20451;-81
2022/12/18 11:20:31;;;;;;;22.03;12.10;;;2.70;99.90;;;;;;5087173;28;20466;-83
2022/12/18 11:22:59;;;;;;;20.93;12.33;;;2.80;99.90;;;;;;5087133;28;20455;-83
2022/12/18 11:25:29;;;;;;;22.37;13.23;;;2.90;99.90;;;;;;5093964;28;20439;-82
2022/12/18 11:27:59;;;;;;;20.10;12.97;;;2.90;99.90;;;;;;5097759;28;20532;-82
2022/12/18 11:30:28;;;;;;;21.97;12.67;;;2.90;99.90;;;;;;5091358;28;20463;-82
2022/12/18 11:33:02;;;;;;;21.90;12.87;;;3.00;99.90;;;;;;5083699;28;20447;-81
2022/12/18 11:35:39;;;;;;;19.77;13.37;;;3.00;99.90;;;;;;5095730;28;20615;-80
2022/12/18 11:38:13;;;;;;;23.60;14.60;;;3.10;99.90;;;;;;5091676;28;20498;-83
2022/12/18 11:40:45;;;;;;;22.93;15.20;;;3.10;99.90;;;;;;5095796;28;20454;-79
2022/12/18 11:43:15;;;;;;;16.40;13.10;;;3.10;99.90;;;;;;5095920;28;20439;-82
2022/12/18 11:45:50;;;;;;;18.50;12.47;;;3.10;99.90;;;;;;5090519;28;20451;-82
2022/12/18 11:48:22;;;;;;;23.63;12.80;;;3.10;99.90;;;;;;5086028;28;21026;-82
2022/12/18 11:50:52;;;;;;;20.10;13.30;;;3.10;99.90;;;;;;5083821;28;20225;-83
2022/12/18 11:53:20;;;;;;;17.50;12.23;;;3.00;99.90;;;;;;5082884;28;20474;-82
2022/12/18 11:55:58;;;;;;;19.03;13.47;;;3.00;99.90;;;;;;5084883;28;20927;-83
2022/12/18 11:58:43;;;;;;;18.47;13.13;;;3.00;99.90;;;;;;5072942;28;20527;-83
2022/12/18 12:01:19;;;;;;;19.30;12.97;;;2.90;99.90;;;;;;5077901;28;20806;-83
2022/12/18 12:04:04;;;;;;;21.90;12.80;;;2.90;99.90;;;;;;5081592;28;20510;-82
2022/12/18 12:06:41;;;;;;;17.57;12.07;;;2.90;99.90;;;;;;5083324;28;20420;-82
2022/12/18 12:09:18;;;;;;;18.17;10.80;;;3.00;99.90;;;;;;5082991;28;20880;-82
2022/12/18 12:12:03;;;;;;;20.40;11.30;;;3.00;99.90;;;;;;5083042;28;20502;-82
2022/12/18 12:14:43;;;;;;;26.87;15.80;;;3.10;99.90;;;;;;5082385;28;20458;-83
2022/12/18 12:17:19;;;;;;;19.97;14.30;;;3.00;99.90;;;;;;5083230;28;20487;-82
2022/12/18 12:19:53;;;;;;;23.87;15.47;;;3.00;99.90;;;;;;5082529;28;20535;-83
2022/12/18 12:22:30;;;;;;;23.20;15.53;;;3.00;99.90;;;;;;5083739;28;20449;-83
2022/12/18 12:25:14;;;;;;;26.52;15.02;;;3.00;99.90;;;;;;5082902;28;20423;-83
2022/12/18 12:27:49;;;;;;;17.83;12.70;;;3.00;99.90;;;;;;5083328;28;20200;-82
2022/12/18 12:30:21;;;;;;;20.27;13.63;;;3.10;99.90;;;;;;5082328;28;21073;-82
2022/12/18 12:33:05;;;;;;;23.90;14.43;;;3.10;99.90;;;;;;5060336;22;21294;-82
2022/12/18 12:35:43;;;;;;;17.90;12.80;;;3.10;99.90;;;;;;5028676;28;20448;-81
2022/12/18 12:38:15;;;;;;;15.07;11.97;;;3.00;99.90;;;;;;5029056;28;20897;-80
2022/12/18 12:40:48;;;;;;;15.13;10.77;;;3.10;99.90;;;;;;5032188;28;20990;-80
2022/12/18 12:43:24;;;;;;;19.53;11.30;;;3.00;99.90;;;;;;5033715;28;20813;-80
2022/12/18 12:45:56;;;;;;;17.13;11.00;;;2.90;99.90;;;;;;5023680;28;20453;-81
2022/12/18 12:48:39;;;;;;;18.27;10.10;;;2.70;99.90;;;;;;5023546;28;20513;-80
2022/12/18 12:51:13;;;;;;;18.50;9.30;;;2.80;99.90;;;;;;5022811;28;21039;-80
2022/12/18 12:53:42;;;;;;;12.20;8.03;;;2.70;99.90;;;;;;5023349;28;20482;-80
2022/12/18 12:56:12;;;;;;;12.50;7.77;;;2.80;99.90;;;;;;5023076;28;20504;-80
2022/12/18 12:58:47;;;;;;;11.13;6.73;;;2.80;99.90;;;;;;5018160;28;20472;-80